Goldsberry, Missouri
Current Conditions -  °F | °C
As of 6:55 PM on Friday 19 Dec 2014 (Local Time) from KIRK Reporting Station
Haze Haze  
Wind Chill: 25°   Ceiling: 800
Heat Index: 32°   Visibility: 5mi
Dew Point: 30°   Wind: 8mph
Humidity: 92%   Direction: 120°ESE
Pressure: 30.23"   Gusts: NA
Location:  39.9344°N, 92.7744°W
Report Text: KIRK 200055Z AUTO 12007KT 5SM BR OVC008 00/M01 A3023 RMK AO2 SLP252 T00001011
Loading
Personal Weather Stations






























Interactive Weather Map New forecast layout! Learn more

10-Day Weather Forecast

Advertisements
Track Severe Weather on mobile